sensor_id;sensor_type;location;lat;lon;timestamp;temperature;humidity
38938;DHT22;24727;51.974;20.868;2023-12-20T00:01:02;5.50;28.70
38938;DHT22;24727;51.974;20.868;2023-12-20T00:03:28;5.50;28.20
38938;DHT22;24727;51.974;20.868;2023-12-20T00:05:54;5.50;28.60
38938;DHT22;24727;51.974;20.868;2023-12-20T00:08:21;5.50;28.80
38938;DHT22;24727;51.974;20.868;2023-12-20T00:10:46;5.50;28.80
38938;DHT22;24727;51.974;20.868;2023-12-20T00:13:12;5.50;28.90
38938;DHT22;24727;51.974;20.868;2023-12-20T00:15:38;5.50;28.80
38938;DHT22;24727;51.974;20.868;2023-12-20T00:18:04;5.50;28.60
38938;DHT22;24727;51.974;20.868;2023-12-20T00:20:30;5.50;28.40
38938;DHT22;24727;51.974;20.868;2023-12-20T00:22:57;5.50;28.30
38938;DHT22;24727;51.974;20.868;2023-12-20T00:25:24;5.50;28.60
38938;DHT22;24727;51.974;20.868;2023-12-20T00:27:50;5.50;28.30
38938;DHT22;24727;51.974;20.868;2023-12-20T00:30:16;5.50;28.00
38938;DHT22;24727;51.974;20.868;2023-12-20T00:32:42;5.50;27.20
38938;DHT22;24727;51.974;20.868;2023-12-20T00:35:15;5.50;27.10
38938;DHT22;24727;51.974;20.868;2023-12-20T00:37:42;5.50;26.80
38938;DHT22;24727;51.974;20.868;2023-12-20T00:40:09;5.50;26.90
38938;DHT22;24727;51.974;20.868;2023-12-20T00:42:35;5.50;27.00
38938;DHT22;24727;51.974;20.868;2023-12-20T00:45:01;5.50;27.00
38938;DHT22;24727;51.974;20.868;2023-12-20T00:47:28;5.50;27.00
38938;DHT22;24727;51.974;20.868;2023-12-20T00:49:54;5.50;27.00
38938;DHT22;24727;51.974;20.868;2023-12-20T00:52:19;5.50;27.30
38938;DHT22;24727;51.974;20.868;2023-12-20T00:54:47;5.50;27.10
38938;DHT22;24727;51.974;20.868;2023-12-20T00:57:13;5.50;27.20
38938;DHT22;24727;51.974;20.868;2023-12-20T00:59:39;5.50;27.50
38938;DHT22;24727;51.974;20.868;2023-12-20T01:02:05;5.50;27.60
38938;DHT22;24727;51.974;20.868;2023-12-20T01:04:31;5.50;27.90
38938;DHT22;24727;51.974;20.868;2023-12-20T01:06:57;5.50;28.00
38938;DHT22;24727;51.974;20.868;2023-12-20T01:09:22;5.50;28.20
38938;DHT22;24727;51.974;20.868;2023-12-20T01:11:54;5.50;28.40
38938;DHT22;24727;51.974;20.868;2023-12-20T01:14:20;5.50;29.50
38938;DHT22;24727;51.974;20.868;2023-12-20T01:16:46;5.50;29.30
38938;DHT22;24727;51.974;20.868;2023-12-20T01:19:13;5.50;29.40
38938;DHT22;24727;51.974;20.868;2023-12-20T01:21:39;5.60;29.70
38938;DHT22;24727;51.974;20.868;2023-12-20T01:24:05;5.50;29.70
38938;DHT22;24727;51.974;20.868;2023-12-20T01:26:31;5.50;29.90
38938;DHT22;24727;51.974;20.868;2023-12-20T01:28:57;5.50;30.10
38938;DHT22;24727;51.974;20.868;2023-12-20T01:31:23;5.60;30.20
38938;DHT22;24727;51.974;20.868;2023-12-20T01:33:49;5.60;30.20
38938;DHT22;24727;51.974;20.868;2023-12-20T01:36:15;5.60;30.60
38938;DHT22;24727;51.974;20.868;2023-12-20T01:38:41;5.60;30.60
38938;DHT22;24727;51.974;20.868;2023-12-20T01:41:07;5.60;30.50
38938;DHT22;24727;51.974;20.868;2023-12-20T01:43:32;5.50;30.80
38938;DHT22;24727;51.974;20.868;2023-12-20T01:45:58;5.50;31.00
38938;DHT22;24727;51.974;20.868;2023-12-20T01:48:25;5.50;31.20
38938;DHT22;24727;51.974;20.868;2023-12-20T01:50:51;5.50;31.00
38938;DHT22;24727;51.974;20.868;2023-12-20T01:53:19;5.50;30.80
38938;DHT22;24727;51.974;20.868;2023-12-20T01:55:46;5.50;31.00
38938;DHT22;24727;51.974;20.868;2023-12-20T01:58:13;5.60;31.10
38938;DHT22;24727;51.974;20.868;2023-12-20T02:00:40;5.60;30.50
38938;DHT22;24727;51.974;20.868;2023-12-20T02:03:06;5.60;30.20
38938;DHT22;24727;51.974;20.868;2023-12-20T02:05:33;5.60;29.60
38938;DHT22;24727;51.974;20.868;2023-12-20T02:08:00;5.60;29.30
38938;DHT22;24727;51.974;20.868;2023-12-20T02:10:26;5.60;28.90
38938;DHT22;24727;51.974;20.868;2023-12-20T02:12:52;5.60;29.00
38938;DHT22;24727;51.974;20.868;2023-12-20T02:15:18;5.60;29.50
38938;DHT22;24727;51.974;20.868;2023-12-20T02:17:46;5.60;29.60
38938;DHT22;24727;51.974;20.868;2023-12-20T02:20:12;5.60;29.50
38938;DHT22;24727;51.974;20.868;2023-12-20T02:22:38;5.60;28.80
38938;DHT22;24727;51.974;20.868;2023-12-20T02:25:04;5.60;27.40
38938;DHT22;24727;51.974;20.868;2023-12-20T02:27:30;5.60;26.10
38938;DHT22;24727;51.974;20.868;2023-12-20T02:29:57;5.60;24.80
38938;DHT22;24727;51.974;20.868;2023-12-20T02:32:24;5.60;23.90
38938;DHT22;24727;51.974;20.868;2023-12-20T02:34:53;5.60;23.00
38938;DHT22;24727;51.974;20.868;2023-12-20T02:37:19;5.60;20.00
38938;DHT22;24727;51.974;20.868;2023-12-20T02:39:45;5.60;18.20
38938;DHT22;24727;51.974;20.868;2023-12-20T02:42:11;5.60;15.60
38938;DHT22;24727;51.974;20.868;2023-12-20T02:44:37;5.60;14.30
38938;DHT22;24727;51.974;20.868;2023-12-20T02:47:03;5.60;13.50
38938;DHT22;24727;51.974;20.868;2023-12-20T02:49:29;5.60;13.30
38938;DHT22;24727;51.974;20.868;2023-12-20T02:51:55;5.60;14.00
38938;DHT22;24727;51.974;20.868;2023-12-20T02:54:20;5.60;12.80
38938;DHT22;24727;51.974;20.868;2023-12-20T02:56:47;5.60;12.90
38938;DHT22;24727;51.974;20.868;2023-12-20T02:59:13;5.60;13.10
38938;DHT22;24727;51.974;20.868;2023-12-20T03:01:44;5.60;13.60
38938;DHT22;24727;51.974;20.868;2023-12-20T03:04:10;5.60;14.20
38938;DHT22;24727;51.974;20.868;2023-12-20T03:06:36;5.60;15.00
38938;DHT22;24727;51.974;20.868;2023-12-20T03:09:01;5.60;15.80
38938;DHT22;24727;51.974;20.868;2023-12-20T03:11:28;5.60;17.80
38938;DHT22;24727;51.974;20.868;2023-12-20T03:13:57;5.50;18.90
38938;DHT22;24727;51.974;20.868;2023-12-20T03:16:23;5.50;21.30
38938;DHT22;24727;51.974;20.868;2023-12-20T03:18:49;5.50;22.10
38938;DHT22;24727;51.974;20.868;2023-12-20T03:21:15;5.60;23.60
38938;DHT22;24727;51.974;20.868;2023-12-20T03:23:41;5.60;24.90
38938;DHT22;24727;51.974;20.868;2023-12-20T03:26:07;5.50;24.80
38938;DHT22;24727;51.974;20.868;2023-12-20T03:28:34;5.60;25.60
38938;DHT22;24727;51.974;20.868;2023-12-20T03:31:00;5.50;27.00
38938;DHT22;24727;51.974;20.868;2023-12-20T03:33:26;5.50;26.90
38938;DHT22;24727;51.974;20.868;2023-12-20T03:35:51;5.50;27.40
38938;DHT22;24727;51.974;20.868;2023-12-20T03:38:17;5.50;27.60
38938;DHT22;24727;51.974;20.868;2023-12-20T03:40:43;5.50;28.00
38938;DHT22;24727;51.974;20.868;2023-12-20T03:43:09;5.50;28.10
38938;DHT22;24727;51.974;20.868;2023-12-20T03:45:35;5.50;28.20
38938;DHT22;24727;51.974;20.868;2023-12-20T03:48:01;5.50;28.40
38938;DHT22;24727;51.974;20.868;2023-12-20T03:50:26;5.50;28.50
38938;DHT22;24727;51.974;20.868;2023-12-20T03:52:52;5.50;28.50
38938;DHT22;24727;51.974;20.868;2023-12-20T03:55:18;5.50;28.20
38938;DHT22;24727;51.974;20.868;2023-12-20T03:57:44;5.50;28.10
38938;DHT22;24727;51.974;20.868;2023-12-20T04:00:10;5.50;28.00
38938;DHT22;24727;51.974;20.868;2023-12-20T04:02:43;5.50;28.10
38938;DHT22;24727;51.974;20.868;2023-12-20T04:05:10;5.50;28.00
38938;DHT22;24727;51.974;20.868;2023-12-20T04:07:36;5.50;27.90
38938;DHT22;24727;51.974;20.868;2023-12-20T04:10:02;5.50;27.70
38938;DHT22;24727;51.974;20.868;2023-12-20T04:12:29;5.50;27.80
38938;DHT22;24727;51.974;20.868;2023-12-20T04:14:56;5.50;27.20
38938;DHT22;24727;51.974;20.868;2023-12-20T04:17:21;5.50;26.40
38938;DHT22;24727;51.974;20.868;2023-12-20T04:19:49;5.50;25.70
38938;DHT22;24727;51.974;20.868;2023-12-20T04:22:15;5.50;25.60
38938;DHT22;24727;51.974;20.868;2023-12-20T04:24:41;5.50;25.40
38938;DHT22;24727;51.974;20.868;2023-12-20T04:27:10;5.50;25.40
38938;DHT22;24727;51.974;20.868;2023-12-20T04:29:36;5.50;25.60
38938;DHT22;24727;51.974;20.868;2023-12-20T04:32:02;5.50;25.80
38938;DHT22;24727;51.974;20.868;2023-12-20T04:34:27;5.50;25.90
38938;DHT22;24727;51.974;20.868;2023-12-20T04:36:53;5.50;26.10
38938;DHT22;24727;51.974;20.868;2023-12-20T04:39:19;5.50;26.20
38938;DHT22;24727;51.974;20.868;2023-12-20T04:41:45;5.50;26.60
38938;DHT22;24727;51.974;20.868;2023-12-20T04:44:13;5.50;26.70
38938;DHT22;24727;51.974;20.868;2023-12-20T04:46:39;5.50;27.20
38938;DHT22;24727;51.974;20.868;2023-12-20T04:49:05;5.40;27.40
38938;DHT22;24727;51.974;20.868;2023-12-20T04:51:33;5.40;27.90
38938;DHT22;24727;51.974;20.868;2023-12-20T04:54:00;5.40;28.10
38938;DHT22;24727;51.974;20.868;2023-12-20T04:56:25;5.40;28.30
38938;DHT22;24727;51.974;20.868;2023-12-20T04:58:52;5.40;28.60
38938;DHT22;24727;51.974;20.868;2023-12-20T05:01:18;5.40;28.80
38938;DHT22;24727;51.974;20.868;2023-12-20T05:03:43;5.50;28.90
38938;DHT22;24727;51.974;20.868;2023-12-20T05:06:10;5.50;29.10
38938;DHT22;24727;51.974;20.868;2023-12-20T05:08:36;5.40;29.40
38938;DHT22;24727;51.974;20.868;2023-12-20T05:11:02;5.40;29.30
38938;DHT22;24727;51.974;20.868;2023-12-20T05:13:28;5.40;29.40
38938;DHT22;24727;51.974;20.868;2023-12-20T05:15:54;5.40;29.50
38938;DHT22;24727;51.974;20.868;2023-12-20T05:18:21;5.40;29.60
38938;DHT22;24727;51.974;20.868;2023-12-20T05:20:51;5.40;30.00
38938;DHT22;24727;51.974;20.868;2023-12-20T05:23:17;5.40;30.40
38938;DHT22;24727;51.974;20.868;2023-12-20T05:25:43;5.40;30.70
38938;DHT22;24727;51.974;20.868;2023-12-20T05:28:08;5.40;31.10
38938;DHT22;24727;51.974;20.868;2023-12-20T05:30:34;5.40;31.30
38938;DHT22;24727;51.974;20.868;2023-12-20T05:33:00;5.40;31.90
38938;DHT22;24727;51.974;20.868;2023-12-20T05:35:26;5.40;32.20
38938;DHT22;24727;51.974;20.868;2023-12-20T05:37:52;5.40;32.50
38938;DHT22;24727;51.974;20.868;2023-12-20T05:40:18;5.40;32.60
38938;DHT22;24727;51.974;20.868;2023-12-20T05:42:44;5.40;32.70
38938;DHT22;24727;51.974;20.868;2023-12-20T05:45:09;5.40;32.70
38938;DHT22;24727;51.974;20.868;2023-12-20T05:47:36;5.30;32.40
38938;DHT22;24727;51.974;20.868;2023-12-20T05:50:02;5.40;32.60
38938;DHT22;24727;51.974;20.868;2023-12-20T05:52:29;5.40;32.30
38938;DHT22;24727;51.974;20.868;2023-12-20T05:54:55;5.30;32.00
38938;DHT22;24727;51.974;20.868;2023-12-20T05:57:23;5.40;31.90
38938;DHT22;24727;51.974;20.868;2023-12-20T05:59:49;5.30;31.70
38938;DHT22;24727;51.974;20.868;2023-12-20T06:02:15;5.40;31.70
38938;DHT22;24727;51.974;20.868;2023-12-20T06:04:42;5.30;31.40
38938;DHT22;24727;51.974;20.868;2023-12-20T06:07:12;5.30;31.10
38938;DHT22;24727;51.974;20.868;2023-12-20T06:09:38;5.30;30.90
38938;DHT22;24727;51.974;20.868;2023-12-20T06:12:05;5.30;30.80
38938;DHT22;24727;51.974;20.868;2023-12-20T06:14:31;5.30;30.70
38938;DHT22;24727;51.974;20.868;2023-12-20T06:16:57;5.30;30.90
38938;DHT22;24727;51.974;20.868;2023-12-20T06:19:23;5.30;31.20
38938;DHT22;24727;51.974;20.868;2023-12-20T06:21:49;5.30;31.20
38938;DHT22;24727;51.974;20.868;2023-12-20T06:24:15;5.30;31.20
38938;DHT22;24727;51.974;20.868;2023-12-20T06:26:41;5.30;31.30
38938;DHT22;24727;51.974;20.868;2023-12-20T06:29:07;5.30;31.70
38938;DHT22;24727;51.974;20.868;2023-12-20T06:31:32;5.30;31.60
38938;DHT22;24727;51.974;20.868;2023-12-20T06:33:59;5.30;31.80
38938;DHT22;24727;51.974;20.868;2023-12-20T06:36:26;5.30;32.10
38938;DHT22;24727;51.974;20.868;2023-12-20T06:38:52;5.40;32.20
38938;DHT22;24727;51.974;20.868;2023-12-20T06:41:19;5.30;32.10
38938;DHT22;24727;51.974;20.868;2023-12-20T06:43:44;5.40;32.20
38938;DHT22;24727;51.974;20.868;2023-12-20T06:46:10;5.40;32.30
38938;DHT22;24727;51.974;20.868;2023-12-20T06:48:37;5.40;32.40
38938;DHT22;24727;51.974;20.868;2023-12-20T06:51:03;5.40;32.40
38938;DHT22;24727;51.974;20.868;2023-12-20T06:53:28;5.40;32.50
38938;DHT22;24727;51.974;20.868;2023-12-20T06:55:54;5.40;32.30
38938;DHT22;24727;51.974;20.868;2023-12-20T06:58:22;5.40;32.20
38938;DHT22;24727;51.974;20.868;2023-12-20T07:00:48;5.30;31.90
38938;DHT22;24727;51.974;20.868;2023-12-20T07:03:14;5.30;31.70
38938;DHT22;24727;51.974;20.868;2023-12-20T07:05:40;5.30;31.50
38938;DHT22;24727;51.974;20.868;2023-12-20T07:08:06;5.30;31.50
38938;DHT22;24727;51.974;20.868;2023-12-20T07:10:32;5.40;31.20
38938;DHT22;24727;51.974;20.868;2023-12-20T07:12:58;5.30;31.00
38938;DHT22;24727;51.974;20.868;2023-12-20T07:15:24;5.30;31.10
38938;DHT22;24727;51.974;20.868;2023-12-20T07:17:50;5.30;30.70
38938;DHT22;24727;51.974;20.868;2023-12-20T07:20:16;5.30;30.60
38938;DHT22;24727;51.974;20.868;2023-12-20T07:22:42;5.30;30.30
38938;DHT22;24727;51.974;20.868;2023-12-20T07:25:08;5.30;30.10
38938;DHT22;24727;51.974;20.868;2023-12-20T07:27:34;5.30;30.10
38938;DHT22;24727;51.974;20.868;2023-12-20T07:30:00;5.30;30.20
38938;DHT22;24727;51.974;20.868;2023-12-20T07:32:26;5.30;30.40
38938;DHT22;24727;51.974;20.868;2023-12-20T07:34:52;5.30;30.70
38938;DHT22;24727;51.974;20.868;2023-12-20T07:37:19;5.30;30.90
38938;DHT22;24727;51.974;20.868;2023-12-20T07:39:45;5.30;31.10
38938;DHT22;24727;51.974;20.868;2023-12-20T07:42:11;5.30;31.30
38938;DHT22;24727;51.974;20.868;2023-12-20T07:44:37;5.30;31.50
38938;DHT22;24727;51.974;20.868;2023-12-20T07:47:03;5.30;31.30
38938;DHT22;24727;51.974;20.868;2023-12-20T07:49:30;5.30;31.00
38938;DHT22;24727;51.974;20.868;2023-12-20T07:51:55;5.30;31.00
38938;DHT22;24727;51.974;20.868;2023-12-20T07:54:21;5.30;30.80
38938;DHT22;24727;51.974;20.868;2023-12-20T07:56:47;5.30;30.80
38938;DHT22;24727;51.974;20.868;2023-12-20T07:59:13;5.30;30.70
38938;DHT22;24727;51.974;20.868;2023-12-20T08:01:38;5.30;30.70
38938;DHT22;24727;51.974;20.868;2023-12-20T08:04:04;5.30;30.50
38938;DHT22;24727;51.974;20.868;2023-12-20T08:06:30;5.30;30.60
38938;DHT22;24727;51.974;20.868;2023-12-20T08:08:57;5.30;30.50
38938;DHT22;24727;51.974;20.868;2023-12-20T08:11:22;5.30;30.50
38938;DHT22;24727;51.974;20.868;2023-12-20T08:13:48;5.30;30.20
38938;DHT22;24727;51.974;20.868;2023-12-20T08:16:14;5.30;30.40
38938;DHT22;24727;51.974;20.868;2023-12-20T08:18:43;5.30;30.50
38938;DHT22;24727;51.974;20.868;2023-12-20T08:21:08;5.30;31.00
38938;DHT22;24727;51.974;20.868;2023-12-20T08:23:34;5.20;30.90
38938;DHT22;24727;51.974;20.868;2023-12-20T08:26:04;5.20;31.10
38938;DHT22;24727;51.974;20.868;2023-12-20T08:28:30;5.30;31.10
38938;DHT22;24727;51.974;20.868;2023-12-20T08:30:57;5.30;30.80
38938;DHT22;24727;51.974;20.868;2023-12-20T08:33:22;5.30;30.80
38938;DHT22;24727;51.974;20.868;2023-12-20T08:35:48;5.30;30.80
38938;DHT22;24727;51.974;20.868;2023-12-20T08:38:14;5.30;31.10
38938;DHT22;24727;51.974;20.868;2023-12-20T08:40:40;5.10;30.90
38938;DHT22;24727;51.974;20.868;2023-12-20T08:43:06;5.30;31.10
38938;DHT22;24727;51.974;20.868;2023-12-20T08:45:31;5.30;31.00
38938;DHT22;24727;51.974;20.868;2023-12-20T08:47:57;5.30;31.00
38938;DHT22;24727;51.974;20.868;2023-12-20T08:50:23;5.30;31.20
38938;DHT22;24727;51.974;20.868;2023-12-20T08:52:50;5.30;31.50
38938;DHT22;24727;51.974;20.868;2023-12-20T08:55:16;5.30;31.50
38938;DHT22;24727;51.974;20.868;2023-12-20T08:57:44;5.30;31.80
38938;DHT22;24727;51.974;20.868;2023-12-20T09:00:11;5.30;31.70
38938;DHT22;24727;51.974;20.868;2023-12-20T09:02:38;5.30;31.90
38938;DHT22;24727;51.974;20.868;2023-12-20T09:05:04;5.30;32.40
38938;DHT22;24727;51.974;20.868;2023-12-20T09:07:30;5.40;32.60
38938;DHT22;24727;51.974;20.868;2023-12-20T09:09:58;5.40;32.70
38938;DHT22;24727;51.974;20.868;2023-12-20T09:12:24;5.30;32.70
38938;DHT22;24727;51.974;20.868;2023-12-20T09:14:51;5.40;32.70
38938;DHT22;24727;51.974;20.868;2023-12-20T09:17:18;5.40;33.00
38938;DHT22;24727;51.974;20.868;2023-12-20T09:19:44;5.30;32.90
38938;DHT22;24727;51.974;20.868;2023-12-20T09:22:11;5.30;33.50
38938;DHT22;24727;51.974;20.868;2023-12-20T09:24:38;5.30;32.80
38938;DHT22;24727;51.974;20.868;2023-12-20T09:27:05;5.30;32.50
38938;DHT22;24727;51.974;20.868;2023-12-20T09:29:31;5.30;32.60
38938;DHT22;24727;51.974;20.868;2023-12-20T09:31:57;5.30;32.90
38938;DHT22;24727;51.974;20.868;2023-12-20T09:34:23;5.30;32.80
38938;DHT22;24727;51.974;20.868;2023-12-20T09:36:49;5.30;33.00
38938;DHT22;24727;51.974;20.868;2023-12-20T09:39:17;5.30;32.80
38938;DHT22;24727;51.974;20.868;2023-12-20T09:42:05;5.30;32.80
38938;DHT22;24727;51.974;20.868;2023-12-20T09:44:32;5.30;32.80
38938;DHT22;24727;51.974;20.868;2023-12-20T09:47:03;5.30;32.80
38938;DHT22;24727;51.974;20.868;2023-12-20T09:49:30;5.30;33.00
38938;DHT22;24727;51.974;20.868;2023-12-20T09:51:56;5.30;32.70
38938;DHT22;24727;51.974;20.868;2023-12-20T09:54:23;5.40;33.00
38938;DHT22;24727;51.974;20.868;2023-12-20T09:56:50;5.40;33.00
38938;DHT22;24727;51.974;20.868;2023-12-20T09:59:16;5.30;32.40
38938;DHT22;24727;51.974;20.868;2023-12-20T10:01:42;5.40;33.10
38938;DHT22;24727;51.974;20.868;2023-12-20T10:04:10;5.30;32.10
38938;DHT22;24727;51.974;20.868;2023-12-20T10:06:43;5.40;32.80
38938;DHT22;24727;51.974;20.868;2023-12-20T10:09:10;5.40;32.20
38938;DHT22;24727;51.974;20.868;2023-12-20T10:11:37;5.30;31.90
38938;DHT22;24727;51.974;20.868;2023-12-20T10:14:04;5.40;31.80
38938;DHT22;24727;51.974;20.868;2023-12-20T10:16:30;5.30;31.70
38938;DHT22;24727;51.974;20.868;2023-12-20T10:18:56;5.30;31.50
38938;DHT22;24727;51.974;20.868;2023-12-20T10:21:23;5.40;31.10
38938;DHT22;24727;51.974;20.868;2023-12-20T10:23:55;5.40;30.90
38938;DHT22;24727;51.974;20.868;2023-12-20T10:26:25;5.30;30.00
38938;DHT22;24727;51.974;20.868;2023-12-20T10:28:55;5.30;29.70
38938;DHT22;24727;51.974;20.868;2023-12-20T10:33:57;5.30;24.40
38938;DHT22;24727;51.974;20.868;2023-12-20T10:36:25;5.30;23.20
38938;DHT22;24727;51.974;20.868;2023-12-20T10:38:52;5.40;21.80
38938;DHT22;24727;51.974;20.868;2023-12-20T10:41:26;5.30;20.80
38938;DHT22;24727;51.974;20.868;2023-12-20T10:44:01;5.30;21.00
38938;DHT22;24727;51.974;20.868;2023-12-20T10:46:28;5.30;21.30
38938;DHT22;24727;51.974;20.868;2023-12-20T10:48:56;5.30;20.40
38938;DHT22;24727;51.974;20.868;2023-12-20T10:51:23;5.30;21.20
38938;DHT22;24727;51.974;20.868;2023-12-20T10:53:51;5.40;21.80
38938;DHT22;24727;51.974;20.868;2023-12-20T10:56:18;5.30;21.80
38938;DHT22;24727;51.974;20.868;2023-12-20T10:58:48;5.40;22.50
38938;DHT22;24727;51.974;20.868;2023-12-20T11:01:16;5.40;22.80
38938;DHT22;24727;51.974;20.868;2023-12-20T11:03:48;5.40;22.70
38938;DHT22;24727;51.974;20.868;2023-12-20T11:09:01;5.30;21.30
38938;DHT22;24727;51.974;20.868;2023-12-20T11:14:22;5.40;22.10
38938;DHT22;24727;51.974;20.868;2023-12-20T11:16:49;5.40;22.20
38938;DHT22;24727;51.974;20.868;2023-12-20T11:19:17;5.30;22.80
38938;DHT22;24727;51.974;20.868;2023-12-20T11:21:43;5.40;23.10
38938;DHT22;24727;51.974;20.868;2023-12-20T11:24:11;5.40;22.00
38938;DHT22;24727;51.974;20.868;2023-12-20T11:26:37;5.40;21.40
38938;DHT22;24727;51.974;20.868;2023-12-20T11:34:58;5.30;19.40
38938;DHT22;24727;51.974;20.868;2023-12-20T11:37:33;5.30;16.50
38938;DHT22;24727;51.974;20.868;2023-12-20T11:40:07;5.30;16.90
38938;DHT22;24727;51.974;20.868;2023-12-20T11:42:41;5.30;16.40
38938;DHT22;24727;51.974;20.868;2023-12-20T11:45:14;5.30;15.70
38938;DHT22;24727;51.974;20.868;2023-12-20T11:47:42;5.30;15.50
38938;DHT22;24727;51.974;20.868;2023-12-20T11:50:08;5.30;14.90
38938;DHT22;24727;51.974;20.868;2023-12-20T11:52:35;5.30;13.80
38938;DHT22;24727;51.974;20.868;2023-12-20T11:55:01;5.30;16.30
38938;DHT22;24727;51.974;20.868;2023-12-20T11:57:27;5.30;13.70
38938;DHT22;24727;51.974;20.868;2023-12-20T11:59:52;5.20;11.30
38938;DHT22;24727;51.974;20.868;2023-12-20T12:02:18;5.20;10.10
38938;DHT22;24727;51.974;20.868;2023-12-20T12:04:44;5.20;10.30
38938;DHT22;24727;51.974;20.868;2023-12-20T12:07:10;5.20;6.30
38938;DHT22;24727;51.974;20.868;2023-12-20T12:09:36;5.20;10.50
38938;DHT22;24727;51.974;20.868;2023-12-20T12:12:03;5.20;12.20
38938;DHT22;24727;51.974;20.868;2023-12-20T12:14:29;5.10;11.50
38938;DHT22;24727;51.974;20.868;2023-12-20T12:16:55;5.10;13.40
38938;DHT22;24727;51.974;20.868;2023-12-20T12:19:24;5.10;14.70
38938;DHT22;24727;51.974;20.868;2023-12-20T12:21:51;5.00;12.50
38938;DHT22;24727;51.974;20.868;2023-12-20T12:24:20;4.90;10.60
38938;DHT22;24727;51.974;20.868;2023-12-20T12:26:51;4.90;6.70
38938;DHT22;24727;51.974;20.868;2023-12-20T12:29:17;4.80;1.00
38938;DHT22;24727;51.974;20.868;2023-12-20T12:31:43;4.80;1.00
38938;DHT22;24727;51.974;20.868;2023-12-20T12:34:08;4.80;1.00
38938;DHT22;24727;51.974;20.868;2023-12-20T12:36:35;4.80;1.00
38938;DHT22;24727;51.974;20.868;2023-12-20T12:39:03;4.80;1.00
38938;DHT22;24727;51.974;20.868;2023-12-20T12:41:30;4.80;1.00
38938;DHT22;24727;51.974;20.868;2023-12-20T12:43:56;4.80;1.00
38938;DHT22;24727;51.974;20.868;2023-12-20T12:46:22;4.80;1.00
38938;DHT22;24727;51.974;20.868;2023-12-20T12:48:47;4.80;1.00
38938;DHT22;24727;51.974;20.868;2023-12-20T12:51:14;4.80;1.00
38938;DHT22;24727;51.974;20.868;2023-12-20T12:53:40;4.80;1.00
38938;DHT22;24727;51.974;20.868;2023-12-20T12:56:06;4.80;1.00
38938;DHT22;24727;51.974;20.868;2023-12-20T12:58:32;4.80;1.00
38938;DHT22;24727;51.974;20.868;2023-12-20T13:00:58;4.80;1.00
38938;DHT22;24727;51.974;20.868;2023-12-20T13:03:24;4.80;1.00
38938;DHT22;24727;51.974;20.868;2023-12-20T13:05:50;4.80;2.40
38938;DHT22;24727;51.974;20.868;2023-12-20T13:08:16;4.80;1.50
38938;DHT22;24727;51.974;20.868;2023-12-20T13:10:42;4.80;1.00
38938;DHT22;24727;51.974;20.868;2023-12-20T13:13:08;4.80;1.00
38938;DHT22;24727;51.974;20.868;2023-12-20T13:15:34;4.80;1.30
38938;DHT22;24727;51.974;20.868;2023-12-20T13:18:00;4.80;1.00
38938;DHT22;24727;51.974;20.868;2023-12-20T13:20:25;4.90;1.20
38938;DHT22;24727;51.974;20.868;2023-12-20T13:22:51;4.90;1.00
38938;DHT22;24727;51.974;20.868;2023-12-20T13:25:17;4.90;1.00
38938;DHT22;24727;51.974;20.868;2023-12-20T13:27:43;4.90;2.40
38938;DHT22;24727;51.974;20.868;2023-12-20T13:30:09;4.90;3.00
38938;DHT22;24727;51.974;20.868;2023-12-20T13:32:35;4.90;3.90
38938;DHT22;24727;51.974;20.868;2023-12-20T13:35:01;4.90;4.20
38938;DHT22;24727;51.974;20.868;2023-12-20T13:37:28;5.00;1.00
38938;DHT22;24727;51.974;20.868;2023-12-20T13:39:54;5.00;1.00
38938;DHT22;24727;51.974;20.868;2023-12-20T13:42:21;5.00;1.00
38938;DHT22;24727;51.974;20.868;2023-12-20T13:44:46;5.00;1.00
38938;DHT22;24727;51.974;20.868;2023-12-20T13:47:12;4.90;1.00
38938;DHT22;24727;51.974;20.868;2023-12-20T13:49:38;4.90;1.00
38938;DHT22;24727;51.974;20.868;2023-12-20T13:52:04;4.90;1.00
38938;DHT22;24727;51.974;20.868;2023-12-20T13:54:30;4.90;1.00
38938;DHT22;24727;51.974;20.868;2023-12-20T13:56:56;4.80;1.00
38938;DHT22;24727;51.974;20.868;2023-12-20T13:59:23;4.80;1.00
38938;DHT22;24727;51.974;20.868;2023-12-20T14:01:49;4.80;1.00
38938;DHT22;24727;51.974;20.868;2023-12-20T14:04:16;4.80;1.00
38938;DHT22;24727;51.974;20.868;2023-12-20T14:06:42;4.90;1.00
38938;DHT22;24727;51.974;20.868;2023-12-20T14:09:08;4.90;1.00
38938;DHT22;24727;51.974;20.868;2023-12-20T14:11:34;4.90;1.00
38938;DHT22;24727;51.974;20.868;2023-12-20T14:14:00;4.90;1.00
38938;DHT22;24727;51.974;20.868;2023-12-20T14:16:27;4.90;1.00
38938;DHT22;24727;51.974;20.868;2023-12-20T14:18:53;4.90;1.00
38938;DHT22;24727;51.974;20.868;2023-12-20T14:21:22;4.90;1.00
38938;DHT22;24727;51.974;20.868;2023-12-20T14:23:49;4.90;1.00
38938;DHT22;24727;51.974;20.868;2023-12-20T14:26:15;5.00;1.00
38938;DHT22;24727;51.974;20.868;2023-12-20T14:28:41;4.90;1.00
38938;DHT22;24727;51.974;20.868;2023-12-20T14:31:07;4.90;1.00
38938;DHT22;24727;51.974;20.868;2023-12-20T14:33:36;4.80;1.00
38938;DHT22;24727;51.974;20.868;2023-12-20T14:36:07;4.80;1.00
38938;DHT22;24727;51.974;20.868;2023-12-20T14:38:32;4.90;1.00
38938;DHT22;24727;51.974;20.868;2023-12-20T14:40:58;4.90;1.00
38938;DHT22;24727;51.974;20.868;2023-12-20T14:43:25;4.90;1.00
38938;DHT22;24727;51.974;20.868;2023-12-20T14:45:52;4.90;1.00
38938;DHT22;24727;51.974;20.868;2023-12-20T14:48:18;4.90;1.00
38938;DHT22;24727;51.974;20.868;2023-12-20T14:50:44;4.80;1.00
38938;DHT22;24727;51.974;20.868;2023-12-20T14:53:13;4.80;1.00
38938;DHT22;24727;51.974;20.868;2023-12-20T14:55:40;4.80;1.00
38938;DHT22;24727;51.974;20.868;2023-12-20T14:58:06;4.80;1.00
38938;DHT22;24727;51.974;20.868;2023-12-20T15:00:32;4.80;1.00
38938;DHT22;24727;51.974;20.868;2023-12-20T15:02:59;4.80;1.00
38938;DHT22;24727;51.974;20.868;2023-12-20T15:05:25;4.70;1.00
38938;DHT22;24727;51.974;20.868;2023-12-20T15:07:52;4.70;1.00
38938;DHT22;24727;51.974;20.868;2023-12-20T15:10:19;4.70;1.00
38938;DHT22;24727;51.974;20.868;2023-12-20T15:12:45;4.60;1.00
38938;DHT22;24727;51.974;20.868;2023-12-20T15:15:11;4.60;1.00
38938;DHT22;24727;51.974;20.868;2023-12-20T15:17:37;4.60;1.00
38938;DHT22;24727;51.974;20.868;2023-12-20T15:20:04;4.60;1.00
38938;DHT22;24727;51.974;20.868;2023-12-20T15:22:30;4.60;1.00
38938;DHT22;24727;51.974;20.868;2023-12-20T15:24:59;4.70;1.00
38938;DHT22;24727;51.974;20.868;2023-12-20T15:27:27;4.70;1.00
38938;DHT22;24727;51.974;20.868;2023-12-20T15:29:53;4.70;1.00
38938;DHT22;24727;51.974;20.868;2023-12-20T15:32:19;4.80;1.00
38938;DHT22;24727;51.974;20.868;2023-12-20T15:34:45;4.80;1.00
38938;DHT22;24727;51.974;20.868;2023-12-20T15:37:11;4.80;1.00
38938;DHT22;24727;51.974;20.868;2023-12-20T15:39:37;4.80;1.00
38938;DHT22;24727;51.974;20.868;2023-12-20T15:42:04;4.80;1.00
38938;DHT22;24727;51.974;20.868;2023-12-20T15:44:30;4.80;1.00